Ana Sayfa
METAR-TAF:

METAR-TAF

Havaalanları :

Montauk, New York, Amerika Birleşik Devletleri

Enlem: 41-04-23N, Boylam: 071-55-24W, yükseklik: 2 m

Güncel hava durumu gözlemi

Rapor saat 17:54 UTC de 15 dakika önce yapıldı.
Rüzgar güneybatıdan 8 kt ve 19 kt'a kadar ani rüzgarlar
Sıcaklık 13°C
Nem 94%
Basınç 1009 hPa

METAR: KMTP 101754Z AUTO 23008G19KT 13/12 A2980 RMK AO1 SLP091 T01280117 10133 20128 55010

Saat: 13:09 (18:09 UTC)


TAF: eksik

4.000'den fazla havaalanı için hava durumu gözlemleri ve tahminleri (METAR ve TAF raporları).

Kullanılabilir istasyonlar harita üzerinde sarı ve kırmızı noktalarla gösterilir.

İstasyonun adını görmek için fareyi noktanın üzerinde gezdirin.

Sonrasında hava gözlem ve tahminlerini görmek için tıklayın.

Haritayı değiştirmek için: yaklaştırmak için siyah artı işaretli yeşil düğmeye ve uzaklaştırmak için de eksi işaretli düğmeye hızla tıklayın; bitişik haritalar için yeşil okları kullanın.


METAR-TAF: